createdAt,value
2023-01-05T00:00:06.331Z,367
2023-01-05T00:02:11.786Z,367
2023-01-05T00:04:21.008Z,367
2023-01-05T00:06:26.244Z,367
2023-01-05T00:08:39.155Z,367
2023-01-05T00:10:44.296Z,367
2023-01-05T00:12:49.373Z,367
2023-01-05T00:14:54.803Z,367
2023-01-05T00:17:00.560Z,367
2023-01-05T00:19:05.870Z,367
2023-01-05T00:21:11.656Z,367
2023-01-05T00:23:17.174Z,367
2023-01-05T00:25:22.344Z,367
2023-01-05T00:27:27.499Z,367
2023-01-05T00:29:32.739Z,367
2023-01-05T00:31:38.270Z,367
2023-01-05T00:33:43.721Z,367
2023-01-05T00:35:49.053Z,367
2023-01-05T00:37:54.042Z,367
2023-01-05T00:39:59.452Z,367
2023-01-05T00:42:04.674Z,367
2023-01-05T00:44:09.800Z,367
2023-01-05T00:46:15.458Z,367
2023-01-05T00:48:20.505Z,367
2023-01-05T00:50:25.657Z,367
2023-01-05T00:52:30.863Z,367
2023-01-05T00:54:36.040Z,367
2023-01-05T00:56:44.586Z,367
2023-01-05T00:58:49.590Z,367
2023-01-05T01:00:54.759Z,367
2023-01-05T01:03:00.092Z,367
2023-01-05T01:05:05.478Z,367
2023-01-05T01:07:11.157Z,367
2023-01-05T01:09:16.654Z,367
2023-01-05T01:11:21.890Z,367
2023-01-05T01:13:26.796Z,367
2023-01-05T01:15:31.931Z,367
2023-01-05T01:17:37.074Z,367
2023-01-05T01:19:42.371Z,367
2023-01-05T01:21:47.475Z,367
2023-01-05T01:23:52.348Z,367
2023-01-05T01:25:57.271Z,367
2023-01-05T01:28:02.643Z,367
2023-01-05T01:30:07.735Z,367
2023-01-05T01:32:13.107Z,367
2023-01-05T01:34:18.501Z,367
2023-01-05T01:36:23.636Z,367
2023-01-05T01:38:28.649Z,367
2023-01-05T01:40:34.774Z,367
2023-01-05T01:42:40.179Z,367
2023-01-05T01:44:45.373Z,367
2023-01-05T01:46:50.528Z,367
2023-01-05T01:48:55.485Z,367
2023-01-05T01:51:09.669Z,367
2023-01-05T01:53:15.017Z,367
2023-01-05T01:55:20.173Z,367
2023-01-05T01:57:25.266Z,367
2023-01-05T01:59:30.504Z,367
2023-01-05T02:01:36.435Z,367
2023-01-05T02:03:41.956Z,367
2023-01-05T02:05:48.335Z,367
2023-01-05T02:07:56.637Z,367
2023-01-05T02:10:01.857Z,367
2023-01-05T02:12:07.271Z,367
2023-01-05T02:14:19.265Z,367
2023-01-05T02:16:24.635Z,367
2023-01-05T02:18:30.111Z,367
2023-01-05T02:20:35.376Z,367
2023-01-05T02:22:40.945Z,367
2023-01-05T02:24:46.117Z,367
2023-01-05T02:26:51.313Z,366
2023-01-05T02:28:56.622Z,367
2023-01-05T02:31:02.700Z,366
2023-01-05T02:33:08.279Z,366
2023-01-05T02:35:14.529Z,366
2023-01-05T02:37:20.012Z,366
2023-01-05T02:39:25.380Z,366
2023-01-05T02:41:30.805Z,366
2023-01-05T02:43:36.229Z,366
2023-01-05T02:45:42.123Z,366
2023-01-05T02:47:47.671Z,366
2023-01-05T02:49:53.062Z,366
2023-01-05T02:51:58.217Z,366
2023-01-05T02:54:03.733Z,366
2023-01-05T02:56:08.944Z,366
2023-01-05T02:58:14.101Z,366
2023-01-05T03:00:19.262Z,366
2023-01-05T03:02:25.159Z,366
2023-01-05T03:04:31.107Z,366
2023-01-05T03:06:36.091Z,366
2023-01-05T03:08:41.279Z,366
2023-01-05T03:10:46.470Z,366
2023-01-05T03:12:51.776Z,366
2023-01-05T03:14:57.410Z,366
2023-01-05T03:17:02.583Z,366
2023-01-05T03:19:07.670Z,366
2023-01-05T03:21:12.866Z,366
2023-01-05T03:23:18.102Z,366
2023-01-05T03:25:23.954Z,366
2023-01-05T03:27:28.984Z,366
2023-01-05T03:29:34.143Z,366
2023-01-05T03:31:39.337Z,366
2023-01-05T03:33:44.572Z,366
2023-01-05T03:35:49.704Z,366
2023-01-05T03:37:54.906Z,366
2023-01-05T03:40:00.543Z,366
2023-01-05T03:42:05.780Z,366
2023-01-05T03:44:10.917Z,366
2023-01-05T03:46:16.312Z,366
2023-01-05T03:48:21.874Z,366
2023-01-05T03:50:31.002Z,366
2023-01-05T03:52:36.106Z,366
2023-01-05T03:54:41.223Z,366
2023-01-05T03:56:46.984Z,366
2023-01-05T03:58:52.114Z,365
2023-01-05T04:00:57.360Z,366
2023-01-05T04:03:03.073Z,365
2023-01-05T04:05:09.205Z,365
2023-01-05T04:07:14.584Z,365
2023-01-05T04:09:19.694Z,365
2023-01-05T04:11:24.945Z,365
2023-01-05T04:13:30.258Z,365
2023-01-05T04:15:35.589Z,365
2023-01-05T04:17:40.747Z,365
2023-01-05T04:19:46.375Z,365
2023-01-05T04:21:51.740Z,365
2023-01-05T04:23:56.928Z,365
2023-01-05T04:26:01.929Z,365
2023-01-05T04:28:07.616Z,365
2023-01-05T04:30:12.648Z,365
2023-01-05T04:32:18.733Z,365
2023-01-05T04:34:23.962Z,365
2023-01-05T04:36:29.463Z,365
2023-01-05T04:38:34.719Z,365
2023-01-05T04:40:39.886Z,365
2023-01-05T04:42:45.016Z,365
2023-01-05T04:44:50.000Z,365
2023-01-05T04:46:55.581Z,365
2023-01-05T04:49:00.917Z,365
2023-01-05T04:51:05.855Z,365
2023-01-05T04:53:11.033Z,365
2023-01-05T04:55:16.289Z,365
2023-01-05T04:57:21.532Z,364
2023-01-05T04:59:26.638Z,364
2023-01-05T05:01:32.127Z,365
2023-01-05T05:03:38.068Z,365
2023-01-05T05:05:44.419Z,364
2023-01-05T05:07:49.883Z,365
2023-01-05T05:09:55.282Z,364
2023-01-05T05:12:00.543Z,364
2023-01-05T05:14:05.463Z,364
2023-01-05T05:16:11.001Z,364
2023-01-05T05:18:16.399Z,364
2023-01-05T05:20:21.576Z,364
2023-01-05T05:22:26.878Z,364
2023-01-05T05:24:32.768Z,364
2023-01-05T05:26:38.054Z,364
2023-01-05T05:28:43.377Z,364
2023-01-05T05:30:50.319Z,364
2023-01-05T05:32:56.015Z,364
2023-01-05T05:35:02.291Z,364
2023-01-05T05:37:07.489Z,364
2023-01-05T05:39:13.705Z,364
2023-01-05T05:41:19.038Z,364
2023-01-05T05:43:24.053Z,363
2023-01-05T05:45:29.350Z,363
2023-01-05T05:47:34.882Z,364
2023-01-05T05:49:40.346Z,363
2023-01-05T05:51:45.592Z,364
2023-01-05T05:53:51.152Z,364
2023-01-05T05:55:56.678Z,363
2023-01-05T05:58:02.389Z,363
2023-01-05T06:00:07.832Z,363
2023-01-05T06:02:13.792Z,363
2023-01-05T06:04:19.226Z,363
2023-01-05T06:06:24.981Z,363
2023-01-05T06:08:30.246Z,363
2023-01-05T06:10:35.615Z,363
2023-01-05T06:12:42.359Z,363
2023-01-05T06:14:48.538Z,363
2023-01-05T06:16:55.813Z,363
2023-01-05T06:19:01.245Z,363
2023-01-05T06:21:06.486Z,363
2023-01-05T06:23:11.888Z,363
2023-01-05T06:25:17.485Z,363
2023-01-05T06:27:22.881Z,363
2023-01-05T06:29:29.563Z,363
2023-01-05T06:31:35.476Z,363
2023-01-05T06:33:40.876Z,363
2023-01-05T06:35:46.206Z,362
2023-01-05T06:37:52.385Z,362
2023-01-05T06:39:58.297Z,363
2023-01-05T06:42:03.639Z,362
2023-01-05T06:44:09.680Z,362
2023-01-05T06:46:15.534Z,361
2023-01-05T06:48:20.851Z,361
2023-01-05T06:50:26.274Z,361
2023-01-05T06:52:31.959Z,361
2023-01-05T06:54:37.286Z,361
2023-01-05T06:56:42.898Z,361
2023-01-05T06:58:48.071Z,361
2023-01-05T07:00:53.460Z,361
2023-01-05T07:02:58.911Z,361
2023-01-05T07:05:04.414Z,361
2023-01-05T07:07:09.394Z,361
2023-01-05T07:09:14.977Z,361
2023-01-05T07:11:20.985Z,361
2023-01-05T07:13:26.509Z,361
2023-01-05T07:15:31.595Z,361
2023-01-05T07:17:36.797Z,361
2023-01-05T07:19:42.161Z,361
2023-01-05T07:21:56.872Z,361
2023-01-05T07:24:02.679Z,361
2023-01-05T07:26:08.486Z,361
2023-01-05T07:28:14.555Z,361
2023-01-05T07:30:20.214Z,361
2023-01-05T07:32:25.550Z,361
2023-01-05T07:34:31.264Z,361
2023-01-05T07:36:37.255Z,361
2023-01-05T07:38:42.292Z,361
2023-01-05T07:40:47.336Z,360
2023-01-05T07:42:53.217Z,361
2023-01-05T07:44:58.982Z,360
2023-01-05T07:47:04.713Z,360
2023-01-05T07:49:09.966Z,360
2023-01-05T07:51:17.677Z,360
2023-01-05T07:53:23.648Z,360
2023-01-05T07:55:29.093Z,360
2023-01-05T07:57:34.475Z,360
2023-01-05T07:59:40.154Z,360
2023-01-05T08:01:46.128Z,360
2023-01-05T08:03:52.074Z,360
2023-01-05T08:05:57.249Z,360
2023-01-05T08:08:02.801Z,360
2023-01-05T08:10:08.020Z,360
2023-01-05T08:12:13.536Z,360
2023-01-05T08:14:20.283Z,360
2023-01-05T08:16:26.021Z,360
2023-01-05T08:18:31.763Z,360
2023-01-05T08:20:37.008Z,360
2023-01-05T08:22:44.274Z,360
2023-01-05T08:24:49.605Z,360
2023-01-05T08:26:55.154Z,360
2023-01-05T08:29:00.624Z,360
2023-01-05T08:31:05.948Z,360
2023-01-05T08:33:11.446Z,360
2023-01-05T08:35:17.722Z,360
2023-01-05T08:37:23.941Z,360
2023-01-05T08:39:29.326Z,360
2023-01-05T08:41:34.813Z,360
2023-01-05T08:43:40.545Z,360
2023-01-05T08:45:45.767Z,360
2023-01-05T08:47:50.788Z,360
2023-01-05T08:49:56.046Z,360
2023-01-05T08:52:01.311Z,360
2023-01-05T08:54:06.896Z,360
2023-01-05T08:56:11.824Z,360
2023-01-05T08:58:17.956Z,360
2023-01-05T09:00:23.322Z,360
2023-01-05T09:02:29.626Z,360
2023-01-05T09:04:35.824Z,360
2023-01-05T09:06:42.129Z,358
2023-01-05T09:08:47.376Z,360
2023-01-05T09:10:52.621Z,358
2023-01-05T09:12:58.614Z,360
2023-01-05T09:15:04.346Z,358
2023-01-05T09:17:11.440Z,360
2023-01-05T09:19:16.717Z,358
2023-01-05T09:21:22.000Z,358
2023-01-05T09:23:27.862Z,358
2023-01-05T09:25:33.343Z,360
2023-01-05T09:27:38.455Z,360
2023-01-05T09:29:43.949Z,358
2023-01-05T09:31:49.595Z,358
2023-01-05T09:33:54.982Z,358
2023-01-05T09:36:00.582Z,358
2023-01-05T09:38:06.364Z,358
2023-01-05T09:40:12.149Z,360
2023-01-05T09:42:17.288Z,358
2023-01-05T09:44:22.951Z,360
2023-01-05T09:46:29.217Z,358
2023-01-05T09:48:34.642Z,358
2023-01-05T09:50:39.944Z,358
2023-01-05T09:52:45.140Z,357
2023-01-05T09:54:53.425Z,358
2023-01-05T09:57:12.660Z,358
2023-01-05T09:59:18.295Z,358
2023-01-05T10:01:24.721Z,358
2023-01-05T10:04:06.788Z,358
2023-01-05T10:06:13.015Z,358
2023-01-05T10:08:18.858Z,358
2023-01-05T10:10:32.896Z,358
2023-01-05T10:12:38.156Z,358
2023-01-05T10:14:43.636Z,358
2023-01-05T10:17:38.951Z,358
2023-01-05T10:19:48.112Z,358
2023-01-05T10:21:53.910Z,358
2023-01-05T10:23:59.252Z,357
2023-01-05T10:26:05.035Z,358
2023-01-05T10:28:10.292Z,358
2023-01-05T10:30:15.589Z,357
2023-01-05T10:32:20.750Z,357
2023-01-05T10:34:26.413Z,358
2023-01-05T10:37:11.240Z,357
2023-01-05T10:39:18.142Z,357
2023-01-05T10:41:24.241Z,357
2023-01-05T10:43:29.932Z,357
2023-01-05T10:45:46.008Z,357
2023-01-05T10:48:34.082Z,357
2023-01-05T10:50:40.338Z,357
2023-01-05T10:52:45.677Z,357
2023-01-05T10:54:51.708Z,357
2023-01-05T10:56:58.018Z,357
2023-01-05T10:59:04.070Z,357
2023-01-05T11:01:10.313Z,357
2023-01-05T11:03:16.646Z,357
2023-01-05T11:05:22.663Z,357
2023-01-05T11:07:28.603Z,357
2023-01-05T11:09:34.057Z,357
2023-01-05T11:11:39.642Z,357
2023-01-05T11:13:45.640Z,357
2023-01-05T11:15:51.012Z,357
2023-01-05T11:17:57.189Z,357
2023-01-05T11:20:03.122Z,357
2023-01-05T11:22:08.982Z,357
2023-01-05T11:24:14.800Z,357
2023-01-05T11:26:20.337Z,357
2023-01-05T11:28:26.231Z,357
2023-01-05T11:30:32.818Z,357
2023-01-05T11:32:39.660Z,357
2023-01-05T11:34:45.001Z,357
2023-01-05T11:36:50.508Z,357
2023-01-05T11:38:56.167Z,357
2023-01-05T11:41:01.421Z,357
2023-01-05T11:43:07.212Z,357
2023-01-05T11:45:12.583Z,357
2023-01-05T11:47:18.479Z,357
2023-01-05T11:49:24.844Z,357
2023-01-05T11:51:30.583Z,357
2023-01-05T11:53:35.764Z,357
2023-01-05T11:55:40.775Z,357
2023-01-05T11:57:46.896Z,357
2023-01-05T11:59:53.123Z,357
2023-01-05T12:01:59.053Z,357
2023-01-05T12:04:05.926Z,357
2023-01-05T12:06:11.898Z,357
2023-01-05T12:08:17.283Z,357
2023-01-05T12:10:23.186Z,357
2023-01-05T12:12:29.420Z,357
2023-01-05T12:14:35.925Z,357
2023-01-05T12:16:41.852Z,357
2023-01-05T12:18:48.034Z,357
2023-01-05T12:20:53.695Z,357
2023-01-05T12:22:59.153Z,357
2023-01-05T12:25:05.926Z,357
2023-01-05T12:27:11.569Z,357
2023-01-05T12:34:05.262Z,357
2023-01-05T12:36:18.523Z,357
2023-01-05T12:38:23.899Z,357
2023-01-05T12:40:29.744Z,357
2023-01-05T12:42:34.971Z,357
2023-01-05T12:44:40.062Z,357
2023-01-05T12:46:45.989Z,357
2023-01-05T12:48:51.551Z,357
2023-01-05T12:50:57.924Z,357
2023-01-05T12:53:04.028Z,357
2023-01-05T12:55:10.857Z,357
2023-01-05T12:57:16.339Z,357
2023-01-05T12:59:24.986Z,357
2023-01-05T13:01:31.531Z,357
2023-01-05T13:03:37.556Z,357
2023-01-05T13:05:49.015Z,357
2023-01-05T13:07:54.342Z,357
2023-01-05T13:10:05.949Z,357
2023-01-05T13:12:12.299Z,357
2023-01-05T13:14:19.037Z,357
2023-01-05T13:16:24.940Z,357
2023-01-05T13:18:30.359Z,357
2023-01-05T13:20:36.605Z,357
2023-01-05T13:22:42.392Z,357
2023-01-05T13:24:47.777Z,357
2023-01-05T13:26:53.516Z,357
2023-01-05T13:29:03.157Z,357
2023-01-05T13:31:08.635Z,357
2023-01-05T13:33:14.267Z,357
2023-01-05T13:35:19.815Z,357
2023-01-05T13:37:25.301Z,357
2023-01-05T13:39:30.874Z,357
2023-01-05T13:41:36.592Z,357
2023-01-05T13:43:42.252Z,357
2023-01-05T13:45:48.296Z,357
2023-01-05T13:48:00.906Z,357
2023-01-05T13:50:12.508Z,357
2023-01-05T13:52:18.657Z,357
2023-01-05T13:54:25.635Z,357
2023-01-05T13:56:41.996Z,357
2023-01-05T13:58:47.480Z,357
2023-01-05T14:00:53.749Z,357
2023-01-05T14:02:59.108Z,357
2023-01-05T14:05:06.192Z,357
2023-01-05T14:07:12.333Z,357
2023-01-05T14:09:18.089Z,357
2023-01-05T14:11:24.382Z,357
2023-01-05T14:13:30.339Z,357
2023-01-05T14:15:36.212Z,357
2023-01-05T14:17:45.498Z,357
2023-01-05T14:19:50.867Z,357
2023-01-05T14:21:57.103Z,357
2023-01-05T14:24:03.168Z,357
2023-01-05T14:26:08.340Z,357
2023-01-05T14:28:14.881Z,357
2023-01-05T14:30:22.720Z,357
2023-01-05T14:32:31.593Z,357
2023-01-05T14:34:37.611Z,357
2023-01-05T14:36:43.478Z,357
2023-01-05T14:38:50.219Z,357
2023-01-05T14:40:56.751Z,357
2023-01-05T14:43:03.229Z,357
2023-01-05T14:45:09.239Z,357
2023-01-05T14:47:15.131Z,357
2023-01-05T14:49:24.633Z,357
2023-01-05T14:51:31.165Z,357
2023-01-05T14:53:37.862Z,357
2023-01-05T14:55:43.509Z,357
2023-01-05T14:57:49.629Z,357
2023-01-05T14:59:57.057Z,357
2023-01-05T15:02:04.040Z,357
2023-01-05T15:04:10.257Z,357
2023-01-05T15:06:17.882Z,357
2023-01-05T15:08:23.672Z,357
2023-01-05T15:10:29.724Z,357
2023-01-05T15:12:37.888Z,357
2023-01-05T15:14:44.991Z,357
2023-01-05T15:16:53.686Z,357
2023-01-05T15:19:00.232Z,357
2023-01-05T15:21:06.922Z,357
2023-01-05T15:23:13.409Z,357
2023-01-05T15:25:19.976Z,357
2023-01-05T15:27:26.349Z,357
2023-01-05T15:29:32.419Z,357
2023-01-05T15:31:39.246Z,357
2023-01-05T15:33:45.763Z,357
2023-01-05T15:35:52.710Z,357
2023-01-05T15:37:59.504Z,357
2023-01-05T15:40:06.325Z,357
2023-01-05T15:42:13.050Z,357
2023-01-05T15:44:20.178Z,357
2023-01-05T15:46:27.964Z,357
2023-01-05T15:48:35.274Z,357
2023-01-05T15:50:54.849Z,357
2023-01-05T15:53:02.208Z,357
2023-01-05T15:55:08.800Z,357
2023-01-05T15:57:14.981Z,357
2023-01-05T15:59:22.078Z,357
2023-01-05T16:01:29.311Z,357
2023-01-05T16:03:38.592Z,357
2023-01-05T16:05:46.543Z,357
2023-01-05T16:07:54.086Z,357
2023-01-05T16:10:00.697Z,357
2023-01-05T16:12:09.309Z,357
2023-01-05T16:14:15.973Z,357
2023-01-05T16:16:55.734Z,357
2023-01-05T16:19:02.328Z,357
2023-01-05T16:21:09.452Z,357
2023-01-05T16:23:16.676Z,357
2023-01-05T16:25:22.422Z,357
2023-01-05T16:27:29.901Z,357
2023-01-05T16:29:36.206Z,357
2023-01-05T16:31:43.704Z,357
2023-01-05T16:33:50.775Z,357
2023-01-05T16:35:58.400Z,357
2023-01-05T16:38:05.645Z,357
2023-01-05T16:40:12.440Z,357
2023-01-05T16:42:19.058Z,357
2023-01-05T16:44:25.288Z,357
2023-01-05T16:46:31.985Z,357
2023-01-05T16:48:39.562Z,357
2023-01-05T16:50:47.044Z,357
2023-01-05T16:52:53.630Z,357
2023-01-05T16:55:00.867Z,357
2023-01-05T16:57:07.595Z,357
2023-01-05T16:59:13.926Z,357
2023-01-05T17:01:22.673Z,357
2023-01-05T17:03:30.096Z,357
2023-01-05T17:05:36.678Z,357
2023-01-05T17:07:43.464Z,357
2023-01-05T17:09:50.185Z,357
2023-01-05T17:48:51.886Z,357
2023-01-05T17:50:59.222Z,357
2023-01-05T17:53:07.364Z,357
2023-01-05T17:55:13.680Z,357
2023-01-05T17:57:20.379Z,357
2023-01-05T17:59:26.611Z,357
2023-01-05T18:01:36.000Z,357
2023-01-05T18:03:44.721Z,356
2023-01-05T18:05:51.147Z,356
2023-01-05T18:07:58.964Z,357
2023-01-05T18:12:13.927Z,357
2023-01-05T18:14:22.907Z,356
2023-01-05T18:18:39.147Z,357
2023-01-05T18:20:48.399Z,357
2023-01-05T18:22:55.272Z,357
2023-01-05T18:25:02.286Z,356
2023-01-05T18:27:10.374Z,356
2023-01-05T18:29:20.004Z,356
2023-01-05T18:31:26.639Z,356
2023-01-05T18:33:33.272Z,356
2023-01-05T18:35:47.079Z,356
2023-01-05T18:38:00.313Z,356
2023-01-05T18:40:07.125Z,357
2023-01-05T18:42:14.281Z,356
2023-01-05T18:44:21.578Z,356
2023-01-05T18:46:30.870Z,356
2023-01-05T18:48:39.061Z,356
2023-01-05T18:50:46.175Z,356
2023-01-05T18:52:53.232Z,356
2023-01-05T18:55:00.361Z,356
2023-01-05T18:57:07.531Z,356
2023-01-05T18:59:15.395Z,356
2023-01-05T19:01:23.211Z,356
2023-01-05T19:03:29.842Z,356
2023-01-05T19:05:37.758Z,356
2023-01-05T19:07:45.894Z,356
2023-01-05T19:09:53.744Z,356
2023-01-05T19:12:00.830Z,356
2023-01-05T19:14:08.750Z,356
2023-01-05T19:16:15.826Z,356
2023-01-05T19:18:25.030Z,356
2023-01-05T19:20:32.332Z,356
2023-01-05T19:22:40.901Z,356
2023-01-05T19:24:49.436Z,356
2023-01-05T19:26:57.603Z,356
2023-01-05T19:29:05.874Z,356
2023-01-05T19:31:15.015Z,356
2023-01-05T19:33:22.213Z,356
2023-01-05T19:35:30.812Z,356
2023-01-05T19:37:37.868Z,356
2023-01-05T19:39:48.399Z,356
2023-01-05T19:41:59.717Z,356
2023-01-05T19:44:07.993Z,356
2023-01-05T19:46:15.841Z,356
2023-01-05T19:48:23.751Z,356
2023-01-05T19:50:33.488Z,356
2023-01-05T19:52:43.379Z,356
2023-01-05T19:54:54.047Z,356
2023-01-05T19:57:01.337Z,356
2023-01-05T19:59:09.014Z,356
2023-01-05T20:01:22.675Z,356
2023-01-05T20:03:34.553Z,356
2023-01-05T20:05:44.768Z,356
2023-01-05T20:07:52.271Z,356
2023-01-05T20:10:07.551Z,356
2023-01-05T20:12:20.102Z,356
2023-01-05T20:14:29.444Z,356
2023-01-05T20:16:40.033Z,356
2023-01-05T20:18:47.496Z,356
2023-01-05T20:20:54.109Z,356
2023-01-05T20:23:06.203Z,356
2023-01-05T20:25:14.458Z,356
2023-01-05T20:27:23.534Z,356
2023-01-05T20:29:35.564Z,356
2023-01-05T20:31:43.104Z,356
2023-01-05T20:33:52.608Z,356
2023-01-05T20:36:00.839Z,356
2023-01-05T20:38:10.656Z,356
2023-01-05T20:40:19.577Z,356
2023-01-05T20:42:27.087Z,356
2023-01-05T20:44:37.224Z,356
2023-01-05T20:46:54.946Z,356
2023-01-05T20:49:05.307Z,356
2023-01-05T20:51:15.295Z,356
2023-01-05T20:53:22.725Z,356
2023-01-05T20:55:30.122Z,356
2023-01-05T20:57:37.122Z,356
2023-01-05T20:59:44.614Z,356
2023-01-05T21:01:52.366Z,356
2023-01-05T21:03:59.473Z,356
2023-01-05T21:06:06.555Z,356
2023-01-05T21:08:15.137Z,356
2023-01-05T21:10:23.786Z,356
2023-01-05T21:12:31.277Z,356
2023-01-05T21:14:38.430Z,356
2023-01-05T21:16:48.001Z,356
2023-01-05T21:18:55.270Z,356
2023-01-05T21:21:02.548Z,356
2023-01-05T21:23:10.316Z,356
2023-01-05T21:25:17.529Z,356
2023-01-05T21:27:25.144Z,356
2023-01-05T21:29:32.035Z,356
2023-01-05T21:31:39.772Z,356
2023-01-05T21:33:48.116Z,356
2023-01-05T21:35:55.640Z,356
2023-01-05T21:38:02.153Z,356
2023-01-05T21:40:11.053Z,356
2023-01-05T21:42:17.575Z,356
2023-01-05T21:44:24.366Z,356
2023-01-05T21:46:31.192Z,356
2023-01-05T21:48:39.441Z,356
2023-01-05T21:50:45.615Z,356
2023-01-05T21:52:52.196Z,356
2023-01-05T21:54:58.960Z,356
2023-01-05T21:57:05.549Z,356
2023-01-05T21:59:12.076Z,356
2023-01-05T22:01:18.762Z,356
2023-01-05T22:03:24.807Z,356
2023-01-05T22:05:36.432Z,356
2023-01-05T22:07:43.455Z,356
2023-01-05T22:09:50.313Z,356
2023-01-05T22:11:56.465Z,356
2023-01-05T22:14:02.258Z,356
2023-01-05T22:16:08.875Z,356
2023-01-05T22:18:17.354Z,356
2023-01-05T22:20:25.370Z,356
2023-01-05T22:22:31.537Z,356
2023-01-05T22:24:38.075Z,356
2023-01-05T22:26:44.238Z,356
2023-01-05T22:28:50.049Z,356
2023-01-05T22:30:55.719Z,356
2023-01-05T22:33:02.353Z,356
2023-01-05T22:35:08.910Z,356
2023-01-05T22:37:14.716Z,356
2023-01-05T22:39:20.590Z,356
2023-01-05T22:41:26.639Z,356
2023-01-05T22:43:32.022Z,356
2023-01-05T22:45:38.131Z,356
2023-01-05T22:47:45.403Z,356
2023-01-05T22:49:51.568Z,356
2023-01-05T22:51:57.059Z,356
2023-01-05T22:54:02.599Z,356
2023-01-05T22:56:08.025Z,356
2023-01-05T22:58:14.457Z,356
2023-01-05T23:00:21.250Z,356
2023-01-05T23:02:27.737Z,356
2023-01-05T23:04:33.499Z,356
2023-01-05T23:06:39.972Z,356
2023-01-05T23:08:45.844Z,356
2023-01-05T23:10:51.563Z,356
2023-01-05T23:13:00.523Z,356
2023-01-05T23:15:05.952Z,356
2023-01-05T23:17:11.412Z,356
2023-01-05T23:19:16.694Z,356
2023-01-05T23:21:22.031Z,356
2023-01-05T23:23:27.660Z,356
2023-01-05T23:25:33.119Z,356
2023-01-05T23:27:38.753Z,356
2023-01-05T23:29:44.070Z,356
2023-01-05T23:31:49.717Z,356
2023-01-05T23:33:56.144Z,356
2023-01-05T23:36:02.200Z,356
2023-01-05T23:38:07.599Z,356
2023-01-05T23:40:13.352Z,356
2023-01-05T23:42:18.797Z,356
2023-01-05T23:44:24.136Z,356
2023-01-05T23:46:29.746Z,356
2023-01-05T23:48:35.112Z,356
2023-01-05T23:50:40.337Z,356
2023-01-05T23:52:45.750Z,356
2023-01-05T23:54:51.645Z,356
2023-01-05T23:56:56.996Z,356
2023-01-05T23:59:05.882Z,356
